sensor_id;sensor_type;location;lat;lon;timestamp;pressure;altitude;pressure_sealevel;temperature;humidity
29467;BME280;60968;37.490;-122.288;2023-01-29T00:00:18;98640.00;;;10.07;93.97
29467;BME280;60968;37.490;-122.288;2023-01-29T00:03:19;98630.56;;;10.01;95.08
29467;BME280;60968;37.490;-122.288;2023-01-29T00:06:19;98638.44;;;9.98;95.77
29467;BME280;60968;37.490;-122.288;2023-01-29T00:09:20;98645.50;;;9.90;96.08
29467;BME280;60968;37.490;-122.288;2023-01-29T00:12:21;98642.34;;;9.72;96.16
29467;BME280;60968;37.490;-122.288;2023-01-29T00:15:22;98634.81;;;9.55;97.37
29467;BME280;60968;37.490;-122.288;2023-01-29T00:18:24;98629.03;;;9.36;97.29
29467;BME280;60968;37.490;-122.288;2023-01-29T00:21:27;98641.22;;;9.34;97.96
29467;BME280;60968;37.490;-122.288;2023-01-29T00:24:28;98638.69;;;9.30;99.03
29467;BME280;60968;37.490;-122.288;2023-01-29T00:27:29;98639.81;;;9.12;99.95
29467;BME280;60968;37.490;-122.288;2023-01-29T00:30:29;98637.59;;;8.84;100.00
29467;BME280;60968;37.490;-122.288;2023-01-29T00:33:30;98643.81;;;8.69;100.00
29467;BME280;60968;37.490;-122.288;2023-01-29T00:36:31;98646.59;;;8.55;100.00
29467;BME280;60968;37.490;-122.288;2023-01-29T00:39:32;98640.63;;;8.45;100.00
29467;BME280;60968;37.490;-122.288;2023-01-29T00:42:33;98659.75;;;8.36;100.00
29467;BME280;60968;37.490;-122.288;2023-01-29T00:45:34;98655.56;;;8.23;100.00
29467;BME280;60968;37.490;-122.288;2023-01-29T00:48:36;98653.13;;;8.07;100.00
29467;BME280;60968;37.490;-122.288;2023-01-29T00:51:38;98658.38;;;8.01;100.00
29467;BME280;60968;37.490;-122.288;2023-01-29T00:54:39;98658.41;;;7.98;100.00
29467;BME280;60968;37.490;-122.288;2023-01-29T00:57:40;98648.13;;;7.89;100.00
29467;BME280;60968;37.490;-122.288;2023-01-29T01:00:41;98646.41;;;7.88;100.00
29467;BME280;60968;37.490;-122.288;2023-01-29T01:03:42;98649.03;;;7.80;100.00
29467;BME280;60968;37.490;-122.288;2023-01-29T01:06:43;98658.59;;;7.77;100.00
29467;BME280;60968;37.490;-122.288;2023-01-29T01:09:43;98663.81;;;7.73;100.00
29467;BME280;60968;37.490;-122.288;2023-01-29T01:12:45;98662.97;;;7.70;100.00
29467;BME280;60968;37.490;-122.288;2023-01-29T01:15:46;98663.00;;;7.62;100.00
29467;BME280;60968;37.490;-122.288;2023-01-29T01:18:47;98659.56;;;7.62;100.00
29467;BME280;60968;37.490;-122.288;2023-01-29T01:21:48;98642.34;;;7.56;100.00
29467;BME280;60968;37.490;-122.288;2023-01-29T01:24:49;98650.13;;;7.56;100.00
29467;BME280;60968;37.490;-122.288;2023-01-29T01:27:54;98657.06;;;7.51;100.00
29467;BME280;60968;37.490;-122.288;2023-01-29T01:31:06;98655.31;;;7.54;100.00
29467;BME280;60968;37.490;-122.288;2023-01-29T01:34:07;98658.72;;;7.61;100.00
29467;BME280;60968;37.490;-122.288;2023-01-29T01:37:13;98659.56;;;7.63;100.00
29467;BME280;60968;37.490;-122.288;2023-01-29T01:40:17;98668.19;;;7.67;100.00
29467;BME280;60968;37.490;-122.288;2023-01-29T01:43:19;98652.69;;;7.56;100.00
29467;BME280;60968;37.490;-122.288;2023-01-29T01:46:21;98657.94;;;7.51;100.00
29467;BME280;60968;37.490;-122.288;2023-01-29T01:49:23;98666.59;;;7.49;100.00
29467;BME280;60968;37.490;-122.288;2023-01-29T01:52:24;98674.28;;;7.61;100.00
29467;BME280;60968;37.490;-122.288;2023-01-29T01:55:27;98684.56;;;7.72;100.00
29467;BME280;60968;37.490;-122.288;2023-01-29T01:58:37;98689.63;;;7.89;100.00
29467;BME280;60968;37.490;-122.288;2023-01-29T02:01:41;98690.44;;;7.94;100.00
29467;BME280;60968;37.490;-122.288;2023-01-29T02:04:46;98667.91;;;8.01;100.00
29467;BME280;60968;37.490;-122.288;2023-01-29T02:07:49;98642.75;;;8.07;100.00
29467;BME280;60968;37.490;-122.288;2023-01-29T02:10:51;98641.09;;;8.00;100.00
29467;BME280;60968;37.490;-122.288;2023-01-29T02:13:52;98678.28;;;7.99;100.00
29467;BME280;60968;37.490;-122.288;2023-01-29T02:16:53;98701.56;;;8.07;100.00
29467;BME280;60968;37.490;-122.288;2023-01-29T02:26:43;98696.38;;;8.07;100.00
29467;BME280;60968;37.490;-122.288;2023-01-29T02:30:04;98687.78;;;8.02;100.00
29467;BME280;60968;37.490;-122.288;2023-01-29T02:36:31;98680.13;;;7.88;100.00
29467;BME280;60968;37.490;-122.288;2023-01-29T02:39:50;98672.47;;;7.72;100.00
29467;BME280;60968;37.490;-122.288;2023-01-29T02:46:34;98661.16;;;7.80;100.00
29467;BME280;60968;37.490;-122.288;2023-01-29T02:49:48;98651.59;;;7.86;100.00
29467;BME280;60968;37.490;-122.288;2023-01-29T02:53:03;98637.75;;;7.89;100.00
29467;BME280;60968;37.490;-122.288;2023-01-29T02:56:11;98675.88;;;7.76;100.00
29467;BME280;60968;37.490;-122.288;2023-01-29T02:59:18;98676.63;;;7.92;100.00
29467;BME280;60968;37.490;-122.288;2023-01-29T03:02:29;98665.41;;;7.87;100.00
29467;BME280;60968;37.490;-122.288;2023-01-29T03:08:56;98664.56;;;7.88;100.00
29467;BME280;60968;37.490;-122.288;2023-01-29T03:12:08;98645.63;;;7.77;100.00
29467;BME280;60968;37.490;-122.288;2023-01-29T03:15:19;98653.44;;;7.75;100.00
29467;BME280;60968;37.490;-122.288;2023-01-29T03:18:24;98643.88;;;7.79;100.00
29467;BME280;60968;37.490;-122.288;2023-01-29T03:21:38;98649.13;;;7.71;100.00
29467;BME280;60968;37.490;-122.288;2023-01-29T03:27:50;98649.13;;;7.72;100.00
29467;BME280;60968;37.490;-122.288;2023-01-29T03:30:55;98650.75;;;7.84;100.00
29467;BME280;60968;37.490;-122.288;2023-01-29T03:34:10;98661.09;;;7.90;100.00
29467;BME280;60968;37.490;-122.288;2023-01-29T03:37:46;98665.28;;;8.01;100.00
29467;BME280;60968;37.490;-122.288;2023-01-29T03:54:06;98663.69;;;7.89;100.00
29467;BME280;60968;37.490;-122.288;2023-01-29T03:57:52;98677.50;;;7.91;100.00
29467;BME280;60968;37.490;-122.288;2023-01-29T04:00:37;98677.44;;;7.97;100.00
29467;BME280;60968;37.490;-122.288;2023-01-29T04:06:54;98671.31;;;8.03;100.00
29467;BME280;60968;37.490;-122.288;2023-01-29T04:10:16;98680.84;;;8.02;100.00
29467;BME280;60968;37.490;-122.288;2023-01-29T04:13:19;98671.28;;;8.09;100.00
29467;BME280;60968;37.490;-122.288;2023-01-29T04:16:27;98676.59;;;7.94;100.00
29467;BME280;60968;37.490;-122.288;2023-01-29T04:19:29;98671.47;;;7.90;100.00
29467;BME280;60968;37.490;-122.288;2023-01-29T04:22:36;98674.88;;;7.94;100.00
29467;BME280;60968;37.490;-122.288;2023-01-29T04:29:15;98668.88;;;7.86;100.00
29467;BME280;60968;37.490;-122.288;2023-01-29T04:32:32;98663.66;;;7.87;100.00
29467;BME280;60968;37.490;-122.288;2023-01-29T04:39:24;98655.88;;;7.92;100.00
29467;BME280;60968;37.490;-122.288;2023-01-29T04:42:42;98645.50;;;7.87;100.00
29467;BME280;60968;37.490;-122.288;2023-01-29T04:49:32;98643.88;;;7.77;100.00
29467;BME280;60968;37.490;-122.288;2023-01-29T04:55:42;98642.00;;;7.96;100.00
29467;BME280;60968;37.490;-122.288;2023-01-29T04:58:51;98629.03;;;7.96;100.00
29467;BME280;60968;37.490;-122.288;2023-01-29T05:01:54;98633.44;;;7.86;100.00
29467;BME280;60968;37.490;-122.288;2023-01-29T05:04:57;98625.66;;;7.88;100.00
29467;BME280;60968;37.490;-122.288;2023-01-29T05:07:58;98635.09;;;7.94;100.00
29467;BME280;60968;37.490;-122.288;2023-01-29T05:11:00;98635.91;;;7.97;100.00
29467;BME280;60968;37.490;-122.288;2023-01-29T05:14:03;98648.03;;;7.98;100.00
29467;BME280;60968;37.490;-122.288;2023-01-29T05:17:18;98648.88;;;7.97;100.00
29467;BME280;60968;37.490;-122.288;2023-01-29T05:20:20;98641.13;;;7.94;100.00
29467;BME280;60968;37.490;-122.288;2023-01-29T05:23:22;98643.72;;;7.96;100.00
29467;BME280;60968;37.490;-122.288;2023-01-29T05:26:23;98652.41;;;7.90;100.00
29467;BME280;60968;37.490;-122.288;2023-01-29T05:29:24;98642.91;;;7.92;100.00
29467;BME280;60968;37.490;-122.288;2023-01-29T05:32:25;98639.47;;;7.88;100.00
29467;BME280;60968;37.490;-122.288;2023-01-29T05:35:26;98643.81;;;7.86;100.00
29467;BME280;60968;37.490;-122.288;2023-01-29T05:38:26;98640.28;;;7.95;100.00
29467;BME280;60968;37.490;-122.288;2023-01-29T05:41:27;98623.00;;;7.91;100.00
29467;BME280;60968;37.490;-122.288;2023-01-29T05:44:28;98642.03;;;7.92;100.00
29467;BME280;60968;37.490;-122.288;2023-01-29T05:47:29;98629.03;;;7.93;100.00
29467;BME280;60968;37.490;-122.288;2023-01-29T05:50:31;98629.09;;;7.87;100.00
29467;BME280;60968;37.490;-122.288;2023-01-29T05:53:33;98627.41;;;7.84;100.00
29467;BME280;60968;37.490;-122.288;2023-01-29T05:56:33;98616.22;;;7.81;100.00
29467;BME280;60968;37.490;-122.288;2023-01-29T05:59:34;98614.50;;;7.77;100.00
29467;BME280;60968;37.490;-122.288;2023-01-29T06:02:35;98610.13;;;7.85;100.00
29467;BME280;60968;37.490;-122.288;2023-01-29T06:05:37;98609.22;;;7.84;100.00
29467;BME280;60968;37.490;-122.288;2023-01-29T06:08:38;98604.97;;;7.79;100.00
29467;BME280;60968;37.490;-122.288;2023-01-29T06:11:40;98610.94;;;7.88;100.00
29467;BME280;60968;37.490;-122.288;2023-01-29T06:14:40;98616.06;;;7.93;100.00
29467;BME280;60968;37.490;-122.288;2023-01-29T06:17:41;98619.56;;;7.92;100.00
29467;BME280;60968;37.490;-122.288;2023-01-29T06:20:43;98618.78;;;7.82;100.00
29467;BME280;60968;37.490;-122.288;2023-01-29T06:23:43;98614.47;;;7.80;100.00
29467;BME280;60968;37.490;-122.288;2023-01-29T06:26:44;98621.41;;;7.78;100.00
29467;BME280;60968;37.490;-122.288;2023-01-29T06:29:45;98614.50;;;7.77;100.00
29467;BME280;60968;37.490;-122.288;2023-01-29T06:32:46;98611.03;;;7.76;100.00
29467;BME280;60968;37.490;-122.288;2023-01-29T06:35:47;98613.63;;;7.78;100.00
29467;BME280;60968;37.490;-122.288;2023-01-29T06:38:48;98611.91;;;7.77;100.00
29467;BME280;60968;37.490;-122.288;2023-01-29T06:41:49;98609.28;;;7.81;100.00
29467;BME280;60968;37.490;-122.288;2023-01-29T06:44:50;98609.31;;;7.78;100.00
29467;BME280;60968;37.490;-122.288;2023-01-29T06:47:51;98611.09;;;7.71;100.00
29467;BME280;60968;37.490;-122.288;2023-01-29T06:50:51;98613.66;;;7.73;100.00
29467;BME280;60968;37.490;-122.288;2023-01-29T06:53:52;98610.13;;;7.82;100.00
29467;BME280;60968;37.490;-122.288;2023-01-29T06:56:53;98612.81;;;7.72;100.00
29467;BME280;60968;37.490;-122.288;2023-01-29T06:59:54;98612.81;;;7.74;100.00
29467;BME280;60968;37.490;-122.288;2023-01-29T07:02:55;98615.34;;;7.79;100.00
29467;BME280;60968;37.490;-122.288;2023-01-29T07:05:56;98606.72;;;7.77;100.00
29467;BME280;60968;37.490;-122.288;2023-01-29T07:08:57;98598.97;;;7.72;100.00
29467;BME280;60968;37.490;-122.288;2023-01-29T07:11:58;98596.44;;;7.67;100.00
29467;BME280;60968;37.490;-122.288;2023-01-29T07:14:58;98589.50;;;7.69;100.00
29467;BME280;60968;37.490;-122.288;2023-01-29T07:18:01;98591.22;;;7.73;100.00
29467;BME280;60968;37.490;-122.288;2023-01-29T07:21:06;98579.97;;;7.70;100.00
29467;BME280;60968;37.490;-122.288;2023-01-29T07:24:08;98579.19;;;7.62;100.00
29467;BME280;60968;37.490;-122.288;2023-01-29T07:27:08;98574.84;;;7.65;100.00
29467;BME280;60968;37.490;-122.288;2023-01-29T07:30:10;98578.25;;;7.69;100.00
29467;BME280;60968;37.490;-122.288;2023-01-29T07:33:11;98573.97;;;7.68;100.00
29467;BME280;60968;37.490;-122.288;2023-01-29T07:36:12;98569.66;;;7.67;100.00
29467;BME280;60968;37.490;-122.288;2023-01-29T07:39:13;98574.97;;;7.53;100.00
29467;BME280;60968;37.490;-122.288;2023-01-29T07:42:14;98576.63;;;7.60;100.00
29467;BME280;60968;37.490;-122.288;2023-01-29T07:45:15;98571.44;;;7.60;100.00
29467;BME280;60968;37.490;-122.288;2023-01-29T07:48:16;98573.19;;;7.60;100.00
29467;BME280;60968;37.490;-122.288;2023-01-29T07:51:17;98557.59;;;7.61;100.00
29467;BME280;60968;37.490;-122.288;2023-01-29T07:54:18;98556.72;;;7.61;100.00
29467;BME280;60968;37.490;-122.288;2023-01-29T07:57:19;98552.44;;;7.58;100.00
29467;BME280;60968;37.490;-122.288;2023-01-29T08:00:20;98545.50;;;7.60;100.00
29467;BME280;60968;37.490;-122.288;2023-01-29T08:03:21;98528.19;;;7.65;100.00
29467;BME280;60968;37.490;-122.288;2023-01-29T08:06:23;98536.78;;;7.67;100.00
29467;BME280;60968;37.490;-122.288;2023-01-29T08:09:23;98541.19;;;7.59;100.00
29467;BME280;60968;37.490;-122.288;2023-01-29T08:12:24;98524.81;;;7.55;100.00
29467;BME280;60968;37.490;-122.288;2023-01-29T08:15:26;98517.91;;;7.54;100.00
29467;BME280;60968;37.490;-122.288;2023-01-29T08:18:27;98518.78;;;7.52;100.00
29467;BME280;60968;37.490;-122.288;2023-01-29T08:21:28;98526.59;;;7.49;100.00
29467;BME280;60968;37.490;-122.288;2023-01-29T08:24:29;98509.31;;;7.49;100.00
29467;BME280;60968;37.490;-122.288;2023-01-29T08:27:30;98511.84;;;7.57;100.00
29467;BME280;60968;37.490;-122.288;2023-01-29T08:30:33;98511.88;;;7.51;100.00
29467;BME280;60968;37.490;-122.288;2023-01-29T08:33:37;98512.75;;;7.53;100.00
29467;BME280;60968;37.490;-122.288;2023-01-29T08:36:38;98511.03;;;7.49;100.00
29467;BME280;60968;37.490;-122.288;2023-01-29T08:39:39;98510.22;;;7.47;100.00
29467;BME280;60968;37.490;-122.288;2023-01-29T08:42:40;98498.94;;;7.52;100.00
29467;BME280;60968;37.490;-122.288;2023-01-29T08:45:42;98503.25;;;7.50;100.00
29467;BME280;60968;37.490;-122.288;2023-01-29T08:48:43;98490.38;;;7.39;100.00
29467;BME280;60968;37.490;-122.288;2023-01-29T08:51:44;98493.88;;;7.38;100.00
29467;BME280;60968;37.490;-122.288;2023-01-29T08:54:45;98494.66;;;7.44;100.00
29467;BME280;60968;37.490;-122.288;2023-01-29T08:57:46;98499.81;;;7.48;100.00
29467;BME280;60968;37.490;-122.288;2023-01-29T09:00:47;98498.13;;;7.46;100.00
29467;BME280;60968;37.490;-122.288;2023-01-29T09:03:48;98499.09;;;7.32;100.00
29467;BME280;60968;37.490;-122.288;2023-01-29T09:06:48;98494.78;;;7.30;100.00
29467;BME280;60968;37.490;-122.288;2023-01-29T09:09:49;98486.25;;;7.20;100.00
29467;BME280;60968;37.490;-122.288;2023-01-29T09:12:50;98481.22;;;7.01;100.00
29467;BME280;60968;37.490;-122.288;2023-01-29T09:15:51;98483.84;;;7.00;100.00
29467;BME280;60968;37.490;-122.288;2023-01-29T09:18:52;98479.47;;;7.05;100.00
29467;BME280;60968;37.490;-122.288;2023-01-29T09:21:53;98489.75;;;7.14;100.00
29467;BME280;60968;37.490;-122.288;2023-01-29T09:24:54;98482.81;;;7.18;100.00
29467;BME280;60968;37.490;-122.288;2023-01-29T09:27:55;98484.47;;;7.25;100.00
29467;BME280;60968;37.490;-122.288;2023-01-29T09:30:55;98480.16;;;7.27;100.00
29467;BME280;60968;37.490;-122.288;2023-01-29T09:34:00;98488.84;;;7.20;100.00
29467;BME280;60968;37.490;-122.288;2023-01-29T09:37:01;98469.16;;;7.00;100.00
29467;BME280;60968;37.490;-122.288;2023-01-29T09:40:02;98466.66;;;6.90;100.00
29467;BME280;60968;37.490;-122.288;2023-01-29T09:43:19;98456.28;;;6.93;100.00
29467;BME280;60968;37.490;-122.288;2023-01-29T09:46:37;98456.19;;;7.02;100.00
29467;BME280;60968;37.490;-122.288;2023-01-29T09:49:44;98464.78;;;7.06;100.00
29467;BME280;60968;37.490;-122.288;2023-01-29T09:52:54;98456.94;;;7.15;100.00
29467;BME280;60968;37.490;-122.288;2023-01-29T09:56:15;98455.16;;;7.20;100.00
29467;BME280;60968;37.490;-122.288;2023-01-29T09:59:21;98444.03;;;7.10;100.00
29467;BME280;60968;37.490;-122.288;2023-01-29T10:02:34;98445.72;;;7.14;100.00
29467;BME280;60968;37.490;-122.288;2023-01-29T10:12:19;98415.53;;;7.09;100.00
29467;BME280;60968;37.490;-122.288;2023-01-29T10:18:59;98425.91;;;7.09;100.00
29467;BME280;60968;37.490;-122.288;2023-01-29T10:22:08;98423.25;;;7.16;100.00
29467;BME280;60968;37.490;-122.288;2023-01-29T10:25:16;98426.75;;;7.11;100.00
29467;BME280;60968;37.490;-122.288;2023-01-29T10:28:36;98435.34;;;7.14;100.00
29467;BME280;60968;37.490;-122.288;2023-01-29T10:31:39;98428.50;;;7.07;100.00
29467;BME280;60968;37.490;-122.288;2023-01-29T10:34:59;98444.03;;;7.09;100.00
29467;BME280;60968;37.490;-122.288;2023-01-29T10:45:22;98431.09;;;7.07;100.00
29467;BME280;60968;37.490;-122.288;2023-01-29T10:48:39;98425.09;;;7.05;100.00
29467;BME280;60968;37.490;-122.288;2023-01-29T10:55:28;98425.00;;;7.16;100.00
29467;BME280;60968;37.490;-122.288;2023-01-29T10:58:55;98411.09;;;7.20;100.00
29467;BME280;60968;37.490;-122.288;2023-01-29T11:01:59;98397.38;;;7.13;100.00
29467;BME280;60968;37.490;-122.288;2023-01-29T11:05:00;98398.09;;;7.26;100.00
29467;BME280;60968;37.490;-122.288;2023-01-29T11:08:15;98406.69;;;7.31;100.00
29467;BME280;60968;37.490;-122.288;2023-01-29T11:11:19;98393.69;;;7.36;100.00
29467;BME280;60968;37.490;-122.288;2023-01-29T11:14:25;98377.25;;;7.38;100.00
29467;BME280;60968;37.490;-122.288;2023-01-29T11:17:27;98379.03;;;7.32;100.00
29467;BME280;60968;37.490;-122.288;2023-01-29T11:20:29;98374.69;;;7.32;100.00
29467;BME280;60968;37.490;-122.288;2023-01-29T11:23:32;98387.63;;;7.35;100.00
29467;BME280;60968;37.490;-122.288;2023-01-29T11:26:36;98392.91;;;7.26;100.00
29467;BME280;60968;37.490;-122.288;2023-01-29T11:29:44;98399.78;;;7.30;100.00
29467;BME280;60968;37.490;-122.288;2023-01-29T11:32:49;98395.44;;;7.32;100.00
29467;BME280;60968;37.490;-122.288;2023-01-29T11:35:52;98396.41;;;7.24;100.00
29467;BME280;60968;37.490;-122.288;2023-01-29T11:39:17;98370.47;;;7.25;100.00
29467;BME280;60968;37.490;-122.288;2023-01-29T11:42:20;98380.78;;;7.28;100.00
29467;BME280;60968;37.490;-122.288;2023-01-29T11:45:27;98374.81;;;7.23;100.00
29467;BME280;60968;37.490;-122.288;2023-01-29T11:48:46;98369.66;;;7.21;100.00
29467;BME280;60968;37.490;-122.288;2023-01-29T11:51:53;98368.72;;;7.27;100.00
29467;BME280;60968;37.490;-122.288;2023-01-29T11:58:17;98373.00;;;7.28;98.71
29467;BME280;60968;37.490;-122.288;2023-01-29T12:01:31;98368.72;;;7.29;98.61
29467;BME280;60968;37.490;-122.288;2023-01-29T12:04:37;98365.22;;;7.33;98.71
29467;BME280;60968;37.490;-122.288;2023-01-29T12:07:41;98358.34;;;7.29;99.69
29467;BME280;60968;37.490;-122.288;2023-01-29T12:10:43;98366.06;;;7.32;100.00
29467;BME280;60968;37.490;-122.288;2023-01-29T12:13:53;98366.91;;;7.32;100.00
29467;BME280;60968;37.490;-122.288;2023-01-29T12:17:16;98367.00;;;7.26;100.00
29467;BME280;60968;37.490;-122.288;2023-01-29T12:20:26;98369.53;;;7.31;100.00
29467;BME280;60968;37.490;-122.288;2023-01-29T12:36:36;98348.94;;;7.21;100.00
29467;BME280;60968;37.490;-122.288;2023-01-29T12:39:39;98342.03;;;7.19;100.00
29467;BME280;60968;37.490;-122.288;2023-01-29T12:42:44;98342.88;;;7.19;100.00
29467;BME280;60968;37.490;-122.288;2023-01-29T12:45:53;98337.75;;;7.15;100.00
29467;BME280;60968;37.490;-122.288;2023-01-29T12:48:58;98326.53;;;7.14;100.00
29467;BME280;60968;37.490;-122.288;2023-01-29T12:52:14;98319.69;;;7.10;100.00
29467;BME280;60968;37.490;-122.288;2023-01-29T12:55:31;98307.66;;;7.03;100.00
29467;BME280;60968;37.490;-122.288;2023-01-29T12:58:55;98310.38;;;6.92;100.00
29467;BME280;60968;37.490;-122.288;2023-01-29T13:02:22;98303.41;;;6.96;100.00
29467;BME280;60968;37.490;-122.288;2023-01-29T13:05:39;98291.34;;;6.96;100.00
29467;BME280;60968;37.490;-122.288;2023-01-29T13:09:01;98293.06;;;6.96;100.00
29467;BME280;60968;37.490;-122.288;2023-01-29T13:12:10;98286.16;;;6.96;100.00
29467;BME280;60968;37.490;-122.288;2023-01-29T13:15:37;98288.03;;;6.85;100.00
29467;BME280;60968;37.490;-122.288;2023-01-29T13:21:41;98296.56;;;6.90;100.00
29467;BME280;60968;37.490;-122.288;2023-01-29T13:24:43;98276.78;;;6.84;100.00
29467;BME280;60968;37.490;-122.288;2023-01-29T13:27:45;98270.81;;;6.76;100.00
29467;BME280;60968;37.490;-122.288;2023-01-29T13:30:46;98276.91;;;6.75;100.00
29467;BME280;60968;37.490;-122.288;2023-01-29T13:34:23;98261.28;;;6.81;100.00
29467;BME280;60968;37.490;-122.288;2023-01-29T13:37:55;98248.44;;;6.70;100.00
29467;BME280;60968;37.490;-122.288;2023-01-29T13:41:05;98248.59;;;6.60;100.00
29467;BME280;60968;37.490;-122.288;2023-01-29T13:44:19;98238.28;;;6.52;100.00
29467;BME280;60968;37.490;-122.288;2023-01-29T13:47:26;98238.25;;;6.57;100.00
29467;BME280;60968;37.490;-122.288;2023-01-29T13:50:36;98242.50;;;6.64;100.00
29467;BME280;60968;37.490;-122.288;2023-01-29T13:53:41;98241.53;;;6.73;100.00
29467;BME280;60968;37.490;-122.288;2023-01-29T13:56:45;98238.97;;;6.71;100.00
29467;BME280;60968;37.490;-122.288;2023-01-29T13:59:55;98241.59;;;6.65;100.00
29467;BME280;60968;37.490;-122.288;2023-01-29T14:06:00;98247.63;;;6.68;100.00
29467;BME280;60968;37.490;-122.288;2023-01-29T14:09:01;98252.72;;;6.75;100.00
29467;BME280;60968;37.490;-122.288;2023-01-29T14:15:24;98249.19;;;6.85;100.00
29467;BME280;60968;37.490;-122.288;2023-01-29T14:18:27;98246.66;;;6.77;100.00
29467;BME280;60968;37.490;-122.288;2023-01-29T14:21:33;98254.44;;;6.76;100.00
29467;BME280;60968;37.490;-122.288;2023-01-29T14:24:35;98262.22;;;6.74;100.00
29467;BME280;60968;37.490;-122.288;2023-01-29T14:27:36;98258.84;;;6.67;100.00
29467;BME280;60968;37.490;-122.288;2023-01-29T14:30:38;98246.75;;;6.66;100.00
29467;BME280;60968;37.490;-122.288;2023-01-29T14:33:40;98246.81;;;6.63;100.00
29467;BME280;60968;37.490;-122.288;2023-01-29T14:36:43;98254.44;;;6.76;100.00
29467;BME280;60968;37.490;-122.288;2023-01-29T14:43:02;98257.78;;;6.87;100.00
29467;BME280;60968;37.490;-122.288;2023-01-29T14:49:50;98257.69;;;6.96;100.00
29467;BME280;60968;37.490;-122.288;2023-01-29T14:52:52;98262.00;;;6.94;100.00
29467;BME280;60968;37.490;-122.288;2023-01-29T14:59:56;98259.56;;;6.80;100.00
29467;BME280;60968;37.490;-122.288;2023-01-29T15:02:59;98249.31;;;6.71;100.00
29467;BME280;60968;37.490;-122.288;2023-01-29T15:06:04;98251.16;;;6.61;100.00
29467;BME280;60968;37.490;-122.288;2023-01-29T15:09:13;98238.22;;;6.61;100.00
29467;BME280;60968;37.490;-122.288;2023-01-29T15:12:37;98245.06;;;6.65;100.00
29467;BME280;60968;37.490;-122.288;2023-01-29T15:15:49;98237.31;;;6.65;100.00
29467;BME280;60968;37.490;-122.288;2023-01-29T15:19:03;98237.31;;;6.64;100.00
29467;BME280;60968;37.490;-122.288;2023-01-29T15:22:12;98232.16;;;6.61;100.00
29467;BME280;60968;37.490;-122.288;2023-01-29T15:25:13;98233.97;;;6.54;100.00
29467;BME280;60968;37.490;-122.288;2023-01-29T15:28:14;98228.81;;;6.54;100.00
29467;BME280;60968;37.490;-122.288;2023-01-29T15:31:17;98232.97;;;6.67;100.00
29467;BME280;60968;37.490;-122.288;2023-01-29T15:34:18;98234.63;;;6.72;100.00
29467;BME280;60968;37.490;-122.288;2023-01-29T15:37:31;98238.13;;;6.69;100.00
29467;BME280;60968;37.490;-122.288;2023-01-29T15:40:33;98244.16;;;6.71;100.00
29467;BME280;60968;37.490;-122.288;2023-01-29T15:43:36;98242.34;;;6.79;100.00
29467;BME280;60968;37.490;-122.288;2023-01-29T15:46:39;98244.13;;;6.73;100.00
29467;BME280;60968;37.490;-122.288;2023-01-29T15:49:41;98245.78;;;6.78;100.00
29467;BME280;60968;37.490;-122.288;2023-01-29T15:52:42;98257.88;;;6.79;100.00
29467;BME280;60968;37.490;-122.288;2023-01-29T15:55:43;98243.13;;;6.84;100.00
29467;BME280;60968;37.490;-122.288;2023-01-29T15:58:47;98238.03;;;6.77;100.00
29467;BME280;60968;37.490;-122.288;2023-01-29T16:01:49;98236.13;;;6.93;100.00
29467;BME280;60968;37.490;-122.288;2023-01-29T16:04:50;98235.97;;;7.07;100.00
29467;BME280;60968;37.490;-122.288;2023-01-29T16:07:51;98231.44;;;7.22;100.00
29467;BME280;60968;37.490;-122.288;2023-01-29T16:11:04;98242.59;;;7.29;100.00
29467;BME280;60968;37.490;-122.288;2023-01-29T16:14:06;98248.53;;;7.37;100.00
29467;BME280;60968;37.490;-122.288;2023-01-29T16:17:30;98243.41;;;7.30;100.00
29467;BME280;60968;37.490;-122.288;2023-01-29T16:20:38;98251.22;;;7.31;100.00
29467;BME280;60968;37.490;-122.288;2023-01-29T16:23:44;98246.72;;;7.44;100.00
29467;BME280;60968;37.490;-122.288;2023-01-29T16:26:49;98249.25;;;7.47;100.00
29467;BME280;60968;37.490;-122.288;2023-01-29T16:29:51;98251.06;;;7.41;100.00
29467;BME280;60968;37.490;-122.288;2023-01-29T16:32:52;98251.03;;;7.42;100.00
29467;BME280;60968;37.490;-122.288;2023-01-29T16:36:02;98243.84;;;7.63;100.00
29467;BME280;60968;37.490;-122.288;2023-01-29T16:39:05;98242.66;;;7.84;100.00
29467;BME280;60968;37.490;-122.288;2023-01-29T16:45:34;98250.50;;;8.84;87.94
29467;BME280;60968;37.490;-122.288;2023-01-29T16:48:35;98242.41;;;8.54;90.91
29467;BME280;60968;37.490;-122.288;2023-01-29T16:51:37;98241.31;;;8.16;92.47
29467;BME280;60968;37.490;-122.288;2023-01-29T16:54:41;98244.16;;;8.00;96.31
29467;BME280;60968;37.490;-122.288;2023-01-29T16:57:46;98253.97;;;7.80;97.13
29467;BME280;60968;37.490;-122.288;2023-01-29T17:00:55;98248.16;;;7.64;100.00
29467;BME280;60968;37.490;-122.288;2023-01-29T17:04:11;98248.44;;;7.44;100.00
29467;BME280;60968;37.490;-122.288;2023-01-29T17:07:16;98246.03;;;7.28;100.00
29467;BME280;60968;37.490;-122.288;2023-01-29T17:10:19;98247.66;;;7.38;100.00
29467;BME280;60968;37.490;-122.288;2023-01-29T17:13:40;98236.28;;;7.49;100.00
29467;BME280;60968;37.490;-122.288;2023-01-29T17:17:06;98236.03;;;7.66;100.00
29467;BME280;60968;37.490;-122.288;2023-01-29T17:20:12;98237.88;;;7.56;100.00
29467;BME280;60968;37.490;-122.288;2023-01-29T17:23:13;98229.72;;;7.84;100.00
29467;BME280;60968;37.490;-122.288;2023-01-29T17:26:14;98239.22;;;7.83;100.00
29467;BME280;60968;37.490;-122.288;2023-01-29T17:29:22;98238.72;;;8.14;100.00
29467;BME280;60968;37.490;-122.288;2023-01-29T17:32:24;98244.59;;;8.24;100.00
29467;BME280;60968;37.490;-122.288;2023-01-29T17:35:25;98238.66;;;8.19;100.00